createdAt,value
2018-12-04T00:01:18.363Z,11.61
2018-12-04T00:03:50.945Z,11.56
2018-12-04T00:06:23.646Z,11.49
2018-12-04T00:08:56.224Z,11.44
2018-12-04T00:11:28.898Z,11.24
2018-12-04T00:14:01.442Z,11.13
2018-12-04T00:16:34.038Z,11.15
2018-12-04T00:19:06.589Z,11.13
2018-12-04T00:21:39.162Z,11.14
2018-12-04T00:24:11.733Z,11.11
2018-12-04T00:26:44.386Z,11.08
2018-12-04T00:29:16.938Z,11.05
2018-12-04T00:31:49.540Z,10.90
2018-12-04T00:34:22.118Z,10.86
2018-12-04T00:36:54.710Z,10.92
2018-12-04T00:39:27.277Z,10.94
2018-12-04T00:41:59.960Z,10.94
2018-12-04T00:44:32.511Z,10.85
2018-12-04T00:47:05.100Z,10.81
2018-12-04T00:49:37.645Z,10.84
2018-12-04T00:52:10.222Z,10.80
2018-12-04T00:54:42.772Z,10.80
2018-12-04T00:57:15.421Z,10.80
2018-12-04T00:59:47.970Z,10.76
2018-12-04T01:02:20.548Z,10.77
2018-12-04T01:04:53.118Z,10.73
2018-12-04T01:07:25.710Z,10.74
2018-12-04T01:09:58.254Z,10.69
2018-12-04T01:12:30.941Z,10.66
2018-12-04T01:15:03.506Z,10.66
2018-12-04T01:17:36.107Z,10.64
2018-12-04T01:20:08.808Z,10.62
2018-12-04T01:22:41.481Z,10.55
2018-12-04T01:25:14.044Z,10.47
2018-12-04T01:27:46.733Z,10.39
2018-12-04T01:30:19.314Z,10.41
2018-12-04T01:32:51.885Z,10.39
2018-12-04T01:35:24.474Z,10.41
2018-12-04T01:37:57.158Z,10.43
2018-12-04T01:40:29.709Z,10.41
2018-12-04T01:43:02.316Z,10.41
2018-12-04T01:45:34.862Z,10.37
2018-12-04T01:48:07.446Z,10.33
2018-12-04T01:50:39.992Z,10.30
2018-12-04T01:53:12.562Z,10.27
2018-12-04T01:55:45.111Z,10.13
2018-12-04T01:58:17.707Z,10.14
2018-12-04T02:00:50.321Z,10.07
2018-12-04T02:03:22.979Z,10.11
2018-12-04T02:05:55.576Z,10.13
2018-12-04T02:08:28.372Z,10.14
2018-12-04T02:11:00.955Z,10.19
2018-12-04T02:13:33.608Z,10.14
2018-12-04T02:16:06.222Z,10.09
2018-12-04T02:18:38.890Z,10.11
2018-12-04T02:21:11.440Z,10.15
2018-12-04T02:23:44.039Z,10.16
2018-12-04T02:26:16.591Z,10.18
2018-12-04T02:28:49.208Z,10.16
2018-12-04T02:31:21.775Z,10.19
2018-12-04T02:33:54.351Z,10.14
2018-12-04T02:36:26.916Z,10.10
2018-12-04T02:38:59.502Z,10.11
2018-12-04T02:41:32.063Z,10.01
2018-12-04T02:44:04.748Z,10.03
2018-12-04T02:46:37.305Z,10.12
2018-12-04T02:49:09.886Z,9.96
2018-12-04T02:51:42.423Z,9.97
2018-12-04T02:54:15.008Z,9.96
2018-12-04T02:56:47.569Z,9.99
2018-12-04T02:59:20.159Z,9.98
2018-12-04T03:01:52.709Z,9.95
2018-12-04T03:04:25.304Z,9.93
2018-12-04T03:06:57.853Z,9.92
2018-12-04T03:09:30.507Z,9.93
2018-12-04T03:12:03.175Z,9.95
2018-12-04T03:14:35.856Z,9.92
2018-12-04T03:17:08.399Z,9.89
2018-12-04T03:19:40.991Z,9.90
2018-12-04T03:22:13.536Z,9.82
2018-12-04T03:24:46.125Z,9.85
2018-12-04T03:27:18.679Z,9.80
2018-12-04T03:29:51.352Z,9.82
2018-12-04T03:32:23.909Z,9.84
2018-12-04T03:34:56.499Z,9.86
2018-12-04T03:37:29.042Z,9.86
2018-12-04T03:40:01.636Z,9.84
2018-12-04T03:42:34.263Z,9.82
2018-12-04T03:45:06.997Z,9.84
2018-12-04T03:47:39.551Z,9.74
2018-12-04T03:50:12.198Z,9.72
2018-12-04T03:52:44.744Z,9.55
2018-12-04T03:55:17.415Z,9.63
2018-12-04T03:57:49.978Z,9.63
2018-12-04T04:00:22.556Z,9.59
2018-12-04T04:02:55.109Z,9.75
2018-12-04T04:05:27.826Z,9.81
2018-12-04T04:08:00.369Z,9.79
2018-12-04T04:10:33.047Z,9.71
2018-12-04T04:13:05.586Z,9.69
2018-12-04T04:15:38.530Z,9.69
2018-12-04T04:18:11.070Z,9.44
2018-12-04T04:20:43.674Z,9.43
2018-12-04T04:23:16.236Z,9.33
2018-12-04T04:25:48.823Z,9.33
2018-12-04T04:28:21.412Z,9.43
2018-12-04T04:30:54.064Z,9.37
2018-12-04T04:33:26.683Z,9.37
2018-12-04T04:35:59.287Z,9.26
2018-12-04T04:38:31.836Z,9.26
2018-12-04T04:41:04.404Z,9.27
2018-12-04T04:43:36.947Z,9.28
2018-12-04T04:46:09.540Z,9.33
2018-12-04T04:48:42.098Z,9.41
2018-12-04T04:51:14.685Z,9.42
2018-12-04T04:53:47.257Z,9.45
2018-12-04T04:56:19.931Z,9.39
2018-12-04T04:58:52.644Z,9.34
2018-12-04T05:01:25.241Z,9.24
2018-12-04T05:03:57.806Z,9.20
2018-12-04T05:06:30.487Z,9.21
2018-12-04T05:09:03.913Z,9.23
2018-12-04T05:11:36.522Z,9.20
2018-12-04T05:14:09.089Z,9.20
2018-12-04T05:16:41.675Z,9.26
2018-12-04T05:19:14.269Z,9.15
2018-12-04T05:21:46.943Z,9.21
2018-12-04T05:24:19.489Z,9.25
2018-12-04T05:26:52.097Z,9.18
2018-12-04T05:29:24.668Z,9.15
2018-12-04T05:31:57.263Z,9.13
2018-12-04T05:34:29.827Z,9.12
2018-12-04T05:37:02.450Z,9.15
2018-12-04T05:39:35.027Z,9.12
2018-12-04T05:42:07.707Z,9.10
2018-12-04T05:44:40.251Z,9.08
2018-12-04T05:47:12.837Z,9.04
2018-12-04T05:49:45.393Z,9.02
2018-12-04T05:52:18.090Z,9.04
2018-12-04T05:54:50.670Z,9.06
2018-12-04T05:57:23.295Z,9.03
2018-12-04T05:59:55.850Z,9.05
2018-12-04T06:02:28.423Z,8.96
2018-12-04T06:05:00.975Z,8.91
2018-12-04T06:07:33.554Z,8.91
2018-12-04T06:10:06.331Z,8.84
2018-12-04T06:12:39.004Z,8.81
2018-12-04T06:15:12.185Z,8.77
2018-12-04T06:17:44.806Z,8.78
2018-12-04T06:20:17.376Z,8.66
2018-12-04T06:22:49.952Z,8.67
2018-12-04T06:25:22.499Z,8.58
2018-12-04T06:27:55.419Z,8.55
2018-12-04T06:30:27.970Z,8.47
2018-12-04T06:33:00.639Z,8.43
2018-12-04T06:35:33.179Z,8.35
2018-12-04T06:38:05.856Z,8.18
2018-12-04T06:40:38.414Z,8.22
2018-12-04T06:43:11.010Z,8.21
2018-12-04T06:45:43.556Z,8.22
2018-12-04T06:48:16.135Z,8.19
2018-12-04T06:50:48.671Z,8.11
2018-12-04T06:53:21.234Z,8.12
2018-12-04T06:55:53.825Z,8.08
2018-12-04T06:58:26.456Z,8.01
2018-12-04T07:00:58.976Z,8.01
2018-12-04T07:03:31.627Z,7.98
2018-12-04T07:06:04.170Z,7.96
2018-12-04T07:08:36.949Z,7.94
2018-12-04T07:11:09.497Z,7.91
2018-12-04T07:13:42.163Z,7.98
2018-12-04T07:16:14.725Z,7.96
2018-12-04T07:18:47.282Z,7.96
2018-12-04T07:21:19.823Z,7.91
2018-12-04T07:23:52.645Z,7.88
2018-12-04T07:26:25.183Z,7.91
2018-12-04T07:28:57.755Z,7.92
2018-12-04T07:31:30.296Z,7.95
2018-12-04T07:34:02.874Z,7.85
2018-12-04T07:36:35.412Z,7.83
2018-12-04T07:39:08.521Z,7.80
2018-12-04T07:41:41.081Z,7.78
2018-12-04T07:44:13.641Z,7.77
2018-12-04T07:46:46.160Z,7.74
2018-12-04T07:49:18.719Z,7.80
2018-12-04T07:51:51.255Z,7.74
2018-12-04T07:54:23.912Z,7.78
2018-12-04T07:56:56.438Z,7.79
2018-12-04T07:59:29.003Z,7.80
2018-12-04T08:02:01.549Z,7.80
2018-12-04T08:04:34.130Z,7.80
2018-12-04T08:07:06.675Z,7.80
2018-12-04T08:09:39.319Z,7.82
2018-12-04T08:12:11.858Z,7.88
2018-12-04T08:14:44.479Z,7.92
2018-12-04T08:17:17.018Z,7.82
2018-12-04T08:19:49.582Z,7.83
2018-12-04T08:22:22.111Z,7.91
2018-12-04T08:24:54.682Z,7.89
2018-12-04T08:27:27.229Z,7.89
2018-12-04T08:29:59.999Z,7.93
2018-12-04T08:32:32.548Z,7.95
2018-12-04T08:35:06.489Z,7.99
2018-12-04T08:37:39.021Z,8.01
2018-12-04T08:40:11.591Z,8.11
2018-12-04T08:42:44.155Z,8.12
2018-12-04T08:45:16.707Z,8.30
2018-12-04T08:47:49.248Z,8.56
2018-12-04T08:50:21.827Z,8.69
2018-12-04T08:52:54.417Z,8.62
2018-12-04T08:55:27.095Z,8.55
2018-12-04T08:57:59.664Z,8.69
2018-12-04T09:00:32.237Z,8.88
2018-12-04T09:03:04.759Z,8.93
2018-12-04T09:05:37.341Z,8.99
2018-12-04T09:08:09.871Z,9.01
2018-12-04T09:10:42.531Z,8.98
2018-12-04T09:13:15.058Z,9.01
2018-12-04T09:15:47.717Z,9.10
2018-12-04T09:18:20.289Z,8.98
2018-12-04T09:20:52.995Z,9.02
2018-12-04T09:23:25.582Z,8.99
2018-12-04T09:25:58.363Z,9.05
2018-12-04T09:28:30.938Z,9.04
2018-12-04T09:31:03.613Z,9.05
2018-12-04T09:33:36.225Z,8.99
2018-12-04T09:36:08.836Z,8.93
2018-12-04T09:38:41.389Z,8.98
2018-12-04T09:41:14.048Z,8.96
2018-12-04T09:43:46.748Z,8.99
2018-12-04T09:46:19.415Z,8.98
2018-12-04T09:48:51.955Z,9.11
2018-12-04T09:51:24.656Z,9.08
2018-12-04T09:53:57.203Z,9.07
2018-12-04T09:56:29.857Z,9.18
2018-12-04T09:59:02.476Z,9.21
2018-12-04T10:01:35.229Z,9.17
2018-12-04T10:04:07.756Z,9.18
2018-12-04T10:06:40.503Z,9.23
2018-12-04T10:09:13.054Z,9.31
2018-12-04T10:11:45.720Z,9.20
2018-12-04T10:14:19.220Z,9.28
2018-12-04T10:16:51.985Z,9.33
2018-12-04T10:19:24.530Z,9.26
2018-12-04T10:21:57.110Z,9.24
2018-12-04T10:24:29.661Z,9.22
2018-12-04T10:27:02.249Z,9.26
2018-12-04T10:29:34.816Z,9.34
2018-12-04T10:32:07.392Z,9.37
2018-12-04T10:34:39.929Z,9.31
2018-12-04T10:37:12.732Z,9.32
2018-12-04T10:39:45.280Z,9.38
2018-12-04T10:42:17.850Z,9.35
2018-12-04T10:44:50.406Z,9.34
2018-12-04T10:47:23.072Z,9.42
2018-12-04T10:49:55.677Z,9.44
2018-12-04T10:52:28.247Z,9.42
2018-12-04T10:55:00.804Z,9.44
2018-12-04T10:57:33.525Z,9.47
2018-12-04T11:00:10.694Z,9.32
2018-12-04T11:02:44.594Z,9.43
2018-12-04T11:05:17.149Z,9.52
2018-12-04T11:07:49.723Z,9.50
2018-12-04T11:10:22.275Z,9.43
2018-12-04T11:12:54.935Z,9.29
2018-12-04T11:15:27.486Z,9.37
2018-12-04T11:18:00.064Z,9.46
2018-12-04T11:20:32.645Z,9.50
2018-12-04T11:23:05.294Z,9.50
2018-12-04T11:25:37.844Z,9.65
2018-12-04T11:28:10.417Z,9.79
2018-12-04T11:30:42.971Z,9.87
2018-12-04T11:33:15.552Z,9.86
2018-12-04T11:35:48.101Z,10.02
2018-12-04T11:38:20.682Z,9.94
2018-12-04T11:40:53.229Z,9.98
2018-12-04T11:43:25.881Z,10.13
2018-12-04T11:45:58.432Z,9.92
2018-12-04T11:48:31.082Z,9.95
2018-12-04T11:51:03.631Z,9.94
2018-12-04T11:53:36.307Z,10.01
2018-12-04T11:56:08.880Z,10.02
2018-12-04T11:58:41.506Z,10.07
2018-12-04T12:01:16.123Z,10.15
2018-12-04T12:03:48.780Z,10.15
2018-12-04T12:06:21.370Z,10.08
2018-12-04T12:08:53.943Z,9.99
2018-12-04T12:11:26.504Z,9.77
2018-12-04T12:13:59.156Z,9.85
2018-12-04T12:16:31.696Z,10.01
2018-12-04T12:19:04.282Z,10.21
2018-12-04T12:21:36.834Z,10.24
2018-12-04T12:24:09.429Z,10.19
2018-12-04T12:26:42.012Z,9.90
2018-12-04T12:29:14.582Z,9.85
2018-12-04T12:31:47.124Z,9.70
2018-12-04T12:34:23.498Z,9.64
2018-12-04T12:36:54.286Z,9.56
2018-12-04T12:39:26.917Z,9.56
2018-12-04T12:41:59.457Z,9.41
2018-12-04T12:44:32.031Z,9.44
2018-12-04T12:47:04.591Z,9.48
2018-12-04T12:49:37.187Z,9.45
2018-12-04T12:52:09.742Z,9.50
2018-12-04T12:54:42.423Z,9.55
2018-12-04T12:57:14.985Z,9.54
2018-12-04T12:59:47.638Z,9.50
2018-12-04T13:02:20.182Z,9.52
2018-12-04T13:04:52.847Z,9.59
2018-12-04T13:07:25.394Z,9.61
2018-12-04T13:09:57.985Z,9.58
2018-12-04T13:12:30.536Z,9.63
2018-12-04T13:15:03.122Z,9.64
2018-12-04T13:17:35.687Z,9.55
2018-12-04T13:20:08.580Z,9.63
2018-12-04T13:22:41.160Z,9.75
2018-12-04T13:25:13.830Z,9.82
2018-12-04T13:27:46.369Z,9.86
2018-12-04T13:30:19.471Z,9.87
2018-12-04T13:32:52.050Z,9.83
2018-12-04T13:35:24.690Z,9.48
2018-12-04T13:37:57.259Z,8.99
2018-12-04T13:40:29.949Z,8.88
2018-12-04T13:43:02.504Z,8.75
2018-12-04T13:45:35.059Z,8.44
2018-12-04T13:48:07.642Z,8.43
2018-12-04T13:50:40.217Z,8.34
2018-12-04T13:53:12.787Z,8.26
2018-12-04T13:55:45.388Z,8.31
2018-12-04T13:58:17.926Z,8.21
2018-12-04T14:00:50.497Z,8.16
2018-12-04T14:03:23.102Z,8.13
2018-12-04T14:05:55.697Z,8.12
2018-12-04T14:08:28.279Z,8.07
2018-12-04T14:11:00.876Z,8.08
2018-12-04T14:13:33.422Z,8.00
2018-12-04T14:16:06.025Z,7.96
2018-12-04T14:18:38.587Z,7.90
2018-12-04T14:21:11.145Z,7.86
2018-12-04T14:23:43.713Z,7.78
2018-12-04T14:26:16.276Z,7.74
2018-12-04T14:28:48.836Z,7.67
2018-12-04T14:31:21.512Z,7.60
2018-12-04T14:33:54.205Z,7.56
2018-12-04T14:36:26.815Z,7.49
2018-12-04T14:38:59.458Z,7.47
2018-12-04T14:41:32.035Z,7.46
2018-12-04T14:44:04.644Z,7.45
2018-12-04T14:46:37.290Z,7.39
2018-12-04T14:49:09.862Z,7.35
2018-12-04T14:51:42.639Z,7.33
2018-12-04T14:54:15.169Z,7.27
2018-12-04T14:56:47.859Z,7.20
2018-12-04T14:59:20.405Z,7.16
2018-12-04T15:01:53.095Z,7.14
2018-12-04T15:04:25.685Z,7.06
2018-12-04T15:06:58.250Z,7.08
2018-12-04T15:09:30.801Z,7.05
2018-12-04T15:12:03.544Z,6.98
2018-12-04T15:14:36.187Z,6.90
2018-12-04T15:17:08.995Z,6.84
2018-12-04T15:19:41.569Z,6.79
2018-12-04T15:22:14.174Z,6.72
2018-12-04T15:24:46.846Z,6.71
2018-12-04T15:27:19.554Z,6.67
2018-12-04T15:29:52.200Z,6.57
2018-12-04T15:32:24.873Z,6.54
2018-12-04T15:34:57.423Z,6.44
2018-12-04T15:37:30.142Z,6.48
2018-12-04T15:40:03.280Z,6.46
2018-12-04T15:42:36.050Z,6.42
2018-12-04T15:45:08.641Z,6.39
2018-12-04T15:47:41.438Z,6.36
2018-12-04T15:50:14.095Z,6.34
2018-12-04T15:52:46.760Z,6.30
2018-12-04T15:55:19.309Z,6.26
2018-12-04T15:57:51.876Z,6.27
2018-12-04T16:00:24.403Z,6.25
2018-12-04T16:02:57.011Z,6.24
2018-12-04T16:05:29.650Z,6.19
2018-12-04T16:08:02.229Z,6.16
2018-12-04T16:10:34.762Z,6.13
2018-12-04T16:13:07.567Z,6.11
2018-12-04T16:15:40.286Z,6.12
2018-12-04T16:18:12.834Z,6.10
2018-12-04T16:20:45.372Z,6.12
2018-12-04T16:23:18.048Z,6.16
2018-12-04T16:25:50.599Z,6.17
2018-12-04T16:28:23.162Z,6.18
2018-12-04T16:30:55.695Z,6.27
2018-12-04T16:33:28.253Z,6.27
2018-12-04T16:36:00.783Z,6.18
2018-12-04T16:38:33.450Z,6.25
2018-12-04T16:41:06.320Z,6.31
2018-12-04T16:43:39.078Z,6.36
2018-12-04T16:46:11.622Z,6.36
2018-12-04T16:48:44.210Z,6.43
2018-12-04T16:51:16.742Z,6.49
2018-12-04T16:53:49.308Z,6.54
2018-12-04T16:56:21.837Z,6.59
2018-12-04T16:58:54.526Z,6.48
2018-12-04T17:01:27.073Z,6.41
2018-12-04T17:03:59.748Z,6.31
2018-12-04T17:06:32.275Z,6.39
2018-12-04T17:09:06.403Z,6.47
2018-12-04T17:11:38.937Z,6.54
2018-12-04T17:14:11.586Z,6.54
2018-12-04T17:16:44.140Z,6.61
2018-12-04T17:19:17.709Z,6.57
2018-12-04T17:21:50.246Z,6.50
2018-12-04T17:24:22.829Z,6.42
2018-12-04T17:26:55.405Z,6.44
2018-12-04T17:29:28.086Z,6.45
2018-12-04T17:32:00.643Z,6.42
2018-12-04T17:34:33.230Z,6.39
2018-12-04T17:37:05.780Z,6.34
2018-12-04T17:39:38.444Z,6.33
2018-12-04T17:42:11.036Z,6.34
2018-12-04T17:44:43.611Z,6.32
2018-12-04T17:47:16.144Z,6.26
2018-12-04T17:49:48.688Z,6.24
2018-12-04T17:52:21.234Z,6.19
2018-12-04T17:54:53.812Z,6.15
2018-12-04T17:57:26.360Z,6.11
2018-12-04T17:59:58.923Z,6.07
2018-12-04T18:02:31.455Z,6.05
2018-12-04T18:05:04.277Z,6.08
2018-12-04T18:07:36.811Z,6.03
2018-12-04T18:10:09.653Z,6.03
2018-12-04T18:12:42.201Z,6.04
2018-12-04T18:15:14.834Z,6.02
2018-12-04T18:17:47.363Z,5.97
2018-12-04T18:20:19.943Z,5.95
2018-12-04T18:22:52.532Z,5.90
2018-12-04T18:25:25.103Z,5.82
2018-12-04T18:27:57.669Z,5.79
2018-12-04T18:30:30.245Z,5.81
2018-12-04T18:33:02.788Z,5.74
2018-12-04T18:35:35.493Z,5.72
2018-12-04T18:38:08.156Z,5.71
2018-12-04T18:40:40.735Z,5.66
2018-12-04T18:43:13.281Z,5.62
2018-12-04T18:45:46.046Z,5.62
2018-12-04T18:48:18.611Z,5.62
2018-12-04T18:50:51.233Z,5.64
2018-12-04T18:53:23.887Z,5.63
2018-12-04T18:55:56.477Z,5.63
2018-12-04T18:58:29.023Z,5.65
2018-12-04T19:01:01.929Z,5.66
2018-12-04T19:03:34.481Z,5.62
2018-12-04T19:06:07.141Z,5.61
2018-12-04T19:08:45.394Z,5.60
2018-12-04T19:11:18.070Z,5.60
2018-12-04T19:13:50.613Z,5.55
2018-12-04T19:16:23.221Z,5.56
2018-12-04T19:18:55.758Z,5.53
2018-12-04T19:21:28.332Z,5.45
2018-12-04T19:24:00.886Z,5.43
2018-12-04T19:26:33.463Z,5.42
2018-12-04T19:29:06.124Z,5.42
2018-12-04T19:31:39.311Z,5.40
2018-12-04T19:34:11.954Z,5.35
2018-12-04T19:36:44.519Z,5.36
2018-12-04T19:39:17.054Z,5.36
2018-12-04T19:41:49.631Z,5.39
2018-12-04T19:44:22.186Z,5.38
2018-12-04T19:46:54.894Z,5.39
2018-12-04T19:49:27.509Z,5.38
2018-12-04T19:52:00.325Z,5.39
2018-12-04T19:54:32.875Z,5.36
2018-12-04T19:57:05.453Z,5.37
2018-12-04T19:59:38.002Z,5.32
2018-12-04T20:02:10.586Z,5.32
2018-12-04T20:04:43.134Z,5.30
2018-12-04T20:07:15.723Z,5.30
2018-12-04T20:09:48.308Z,5.29
2018-12-04T20:12:21.033Z,5.26
2018-12-04T20:14:53.570Z,5.23
2018-12-04T20:17:26.148Z,5.22
2018-12-04T20:19:58.699Z,5.29
2018-12-04T20:22:31.363Z,5.21
2018-12-04T20:25:04.479Z,5.21
2018-12-04T20:27:37.065Z,5.18
2018-12-04T20:30:09.630Z,5.18
2018-12-04T20:32:42.316Z,5.14
2018-12-04T20:35:14.861Z,5.14
2018-12-04T20:37:47.427Z,5.07
2018-12-04T20:40:19.968Z,5.06
2018-12-04T20:42:52.525Z,5.07
2018-12-04T20:45:25.067Z,5.05
2018-12-04T20:47:58.066Z,5.01
2018-12-04T20:50:30.862Z,5.00
2018-12-04T20:53:03.554Z,4.97
2018-12-04T20:55:36.101Z,4.92
2018-12-04T20:58:08.893Z,4.90
2018-12-04T21:00:41.431Z,4.88
2018-12-04T21:03:14.071Z,4.87
2018-12-04T21:05:46.756Z,4.82
2018-12-04T21:08:19.546Z,4.80
2018-12-04T21:10:52.094Z,4.76
2018-12-04T21:13:24.666Z,4.74
2018-12-04T21:15:57.239Z,4.72
2018-12-04T21:18:29.884Z,4.69
2018-12-04T21:21:02.445Z,4.69
2018-12-04T21:23:35.011Z,4.67
2018-12-04T21:26:07.563Z,4.62
2018-12-04T21:28:42.174Z,4.58
2018-12-04T21:31:20.351Z,4.57
2018-12-04T21:37:03.939Z,4.51
2018-12-04T21:39:36.522Z,4.50
2018-12-04T21:42:14.720Z,4.48
2018-12-04T21:44:52.881Z,4.47
2018-12-04T21:47:31.002Z,4.48
2018-12-04T21:50:04.160Z,4.46
2018-12-04T21:52:36.723Z,4.46
2018-12-04T21:55:09.311Z,4.44
2018-12-04T21:57:41.924Z,4.42
2018-12-04T22:00:14.845Z,4.39
2018-12-04T22:02:47.374Z,4.36
2018-12-04T22:05:20.274Z,4.37
2018-12-04T22:07:53.207Z,4.35
2018-12-04T22:10:26.660Z,4.36
2018-12-04T22:12:59.228Z,4.34
2018-12-04T22:15:31.836Z,4.33
2018-12-04T22:18:04.495Z,4.28
2018-12-04T22:20:37.290Z,4.27
2018-12-04T22:23:09.825Z,4.25
2018-12-04T22:25:42.396Z,4.21
2018-12-04T22:28:14.955Z,4.19
2018-12-04T22:30:47.549Z,4.20
2018-12-04T22:33:20.390Z,4.19
2018-12-04T22:35:53.040Z,4.19
2018-12-04T22:38:25.572Z,4.16
2018-12-04T22:40:58.468Z,4.10
2018-12-04T22:43:31.000Z,4.04
2018-12-04T22:46:05.208Z,3.99
2018-12-04T22:48:38.240Z,3.98
2018-12-04T22:51:10.892Z,3.98
2018-12-04T22:53:43.394Z,4.00
2018-12-04T22:56:16.608Z,4.01
2018-12-04T22:58:49.403Z,3.93
2018-12-04T23:01:40.283Z,3.94
2018-12-04T23:04:12.862Z,3.92
2018-12-04T23:06:45.432Z,3.91
2018-12-04T23:09:17.963Z,3.86
2018-12-04T23:11:50.531Z,3.83
2018-12-04T23:14:23.071Z,3.86
2018-12-04T23:16:55.860Z,3.87
2018-12-04T23:19:28.386Z,3.87
2018-12-04T23:22:00.972Z,3.88
2018-12-04T23:24:33.536Z,3.91
2018-12-04T23:27:06.095Z,3.89
2018-12-04T23:29:38.713Z,3.90
2018-12-04T23:32:11.764Z,3.90
2018-12-04T23:34:44.295Z,3.86
2018-12-04T23:37:16.866Z,3.87
2018-12-04T23:39:49.403Z,3.89
2018-12-04T23:42:22.019Z,3.91
2018-12-04T23:44:54.572Z,3.87
2018-12-04T23:47:27.292Z,3.87
2018-12-04T23:49:59.848Z,3.88
2018-12-04T23:52:32.433Z,3.85
2018-12-04T23:55:05.637Z,3.87
2018-12-04T23:57:38.303Z,3.82
